createdAt,value
2024-01-16T00:00:12.933Z,-2.96
2024-01-16T00:01:12.938Z,-2.94
2024-01-16T00:02:12.957Z,-2.94
2024-01-16T00:03:12.910Z,-2.84
2024-01-16T00:04:12.974Z,-2.89
2024-01-16T00:05:12.964Z,-2.85
2024-01-16T00:06:12.953Z,-2.77
2024-01-16T00:07:13.032Z,-2.84
2024-01-16T00:08:12.941Z,-2.84
2024-01-16T00:09:12.908Z,-2.86
2024-01-16T00:10:12.927Z,-2.86
2024-01-16T00:11:12.943Z,-2.85
2024-01-16T00:12:12.911Z,-2.84
2024-01-16T00:13:12.912Z,-2.84
2024-01-16T00:14:12.934Z,-2.86
2024-01-16T00:15:12.912Z,-2.94
2024-01-16T00:16:12.918Z,-2.99
2024-01-16T00:17:13.023Z,-3.09
2024-01-16T00:18:13.177Z,-3.09
2024-01-16T00:19:13.160Z,-2.92
2024-01-16T00:20:13.005Z,-3.00
2024-01-16T00:21:12.915Z,-2.96
2024-01-16T00:22:12.916Z,-2.92
2024-01-16T00:23:12.961Z,-2.94
2024-01-16T00:24:12.936Z,-2.82
2024-01-16T00:25:12.921Z,-2.84
2024-01-16T00:26:12.946Z,-2.94
2024-01-16T00:27:12.922Z,-2.84
2024-01-16T00:28:12.921Z,-2.89
2024-01-16T00:29:12.979Z,-2.82
2024-01-16T00:30:12.922Z,-2.81
2024-01-16T00:31:12.929Z,-2.85
2024-01-16T00:32:12.973Z,-2.86
2024-01-16T00:33:13.073Z,-2.84
2024-01-16T00:34:12.964Z,-2.86
2024-01-16T00:35:13.002Z,-2.82
2024-01-16T00:36:12.926Z,-2.84
2024-01-16T00:37:12.944Z,-2.88
2024-01-16T00:38:12.949Z,-2.84
2024-01-16T00:39:12.956Z,-2.86
2024-01-16T00:40:12.955Z,-2.92
2024-01-16T00:41:12.948Z,-2.97
2024-01-16T00:42:12.971Z,-3.05
2024-01-16T00:43:12.949Z,-3.00
2024-01-16T00:44:12.946Z,-2.99
2024-01-16T00:45:12.944Z,-2.86
2024-01-16T00:46:12.940Z,-2.86
2024-01-16T00:47:12.962Z,-2.91
2024-01-16T00:48:13.049Z,-2.86
2024-01-16T00:49:13.036Z,-2.88
2024-01-16T00:50:12.965Z,-2.84
2024-01-16T00:51:12.962Z,-2.78
2024-01-16T00:52:12.950Z,-2.79
2024-01-16T00:53:12.997Z,-2.84
2024-01-16T00:54:12.966Z,-2.70
2024-01-16T00:55:12.970Z,-2.73
2024-01-16T00:56:12.988Z,-2.77
2024-01-16T00:57:12.949Z,-2.79
2024-01-16T00:58:12.958Z,-2.77
2024-01-16T00:59:13.007Z,-2.81
2024-01-16T01:00:12.963Z,-2.81
2024-01-16T01:01:13.032Z,-2.89
2024-01-16T01:02:13.004Z,-2.96
2024-01-16T01:03:12.977Z,-2.92
2024-01-16T01:04:12.988Z,-2.94
2024-01-16T01:05:13.013Z,-2.91
2024-01-16T01:06:13.028Z,-2.81
2024-01-16T01:07:12.962Z,-2.81
2024-01-16T01:08:13.020Z,-2.82
2024-01-16T01:09:12.976Z,-2.85
2024-01-16T01:10:12.996Z,-2.84
2024-01-16T01:11:12.984Z,-2.89
2024-01-16T01:12:12.995Z,-2.85
2024-01-16T01:13:12.963Z,-2.91
2024-01-16T01:14:13.113Z,-2.94
2024-01-16T01:15:13.000Z,-2.86
2024-01-16T01:16:12.966Z,-2.77
2024-01-16T01:17:12.998Z,-2.81
2024-01-16T01:18:13.085Z,-2.78
2024-01-16T01:19:13.057Z,-2.79
2024-01-16T01:20:12.994Z,-2.71
2024-01-16T01:21:12.974Z,-2.77
2024-01-16T01:22:12.975Z,-2.79
2024-01-16T01:23:13.012Z,-2.81
2024-01-16T01:24:12.977Z,-2.88
2024-01-16T01:25:12.970Z,-2.81
2024-01-16T01:26:13.017Z,-2.82
2024-01-16T01:27:12.974Z,-2.92
2024-01-16T01:28:12.998Z,-2.92
2024-01-16T01:29:13.126Z,-2.86
2024-01-16T01:30:13.043Z,-2.97
2024-01-16T01:31:12.980Z,-2.92
2024-01-16T01:32:13.003Z,-2.86
2024-01-16T01:33:13.165Z,-2.81
2024-01-16T01:34:13.050Z,-2.78
2024-01-16T01:35:13.004Z,-2.79
2024-01-16T01:36:12.981Z,-2.77
2024-01-16T01:37:12.989Z,-2.82
2024-01-16T01:38:13.012Z,-2.88
2024-01-16T01:39:12.990Z,-2.88
2024-01-16T01:40:12.982Z,-2.86
2024-01-16T01:41:13.003Z,-2.96
2024-01-16T01:42:13.005Z,-2.89
2024-01-16T01:43:12.980Z,-2.94
2024-01-16T01:44:13.026Z,-3.02
2024-01-16T01:45:12.998Z,-2.96
2024-01-16T01:46:13.000Z,-3.02
2024-01-16T01:47:12.982Z,-2.92
2024-01-16T01:48:13.074Z,-2.96
2024-01-16T01:49:12.998Z,-2.92
2024-01-16T01:50:12.997Z,-2.94
2024-01-16T01:51:12.980Z,-3.09
2024-01-16T01:52:12.984Z,-3.10
2024-01-16T01:53:13.005Z,-3.03
2024-01-16T01:54:13.013Z,-3.03
2024-01-16T01:55:13.050Z,-3.03
2024-01-16T01:56:13.000Z,-3.02
2024-01-16T01:57:12.986Z,-3.02
2024-01-16T01:58:12.987Z,-2.94
2024-01-16T01:59:13.012Z,-2.97
2024-01-16T02:00:13.027Z,-2.86
2024-01-16T02:01:13.032Z,-2.85
2024-01-16T02:02:12.996Z,-2.99
2024-01-16T02:03:13.104Z,-2.99
2024-01-16T02:04:12.994Z,-3.00
2024-01-16T02:05:13.157Z,-2.97
2024-01-16T02:06:13.263Z,-2.99
2024-01-16T02:07:12.998Z,-2.96
2024-01-16T02:08:13.034Z,-2.96
2024-01-16T02:09:12.994Z,-2.97
2024-01-16T02:10:13.006Z,-3.06
2024-01-16T02:11:13.017Z,-3.06
2024-01-16T02:12:13.011Z,-3.02
2024-01-16T02:13:12.997Z,-3.03
2024-01-16T02:14:13.030Z,-3.00
2024-01-16T02:15:13.007Z,-2.92
2024-01-16T02:16:13.026Z,-2.82
2024-01-16T02:17:13.014Z,-2.74
2024-01-16T02:18:13.099Z,-2.64
2024-01-16T02:19:13.039Z,-2.56
2024-01-16T02:20:13.022Z,-2.45
2024-01-16T02:21:13.004Z,-2.37
2024-01-16T02:22:13.015Z,-2.35
2024-01-16T02:23:13.038Z,-2.35
2024-01-16T02:24:13.009Z,-2.40
2024-01-16T02:25:13.029Z,-2.39
2024-01-16T02:26:13.052Z,-2.39
2024-01-16T02:27:13.013Z,-2.45
2024-01-16T02:28:13.016Z,-2.35
2024-01-16T02:29:13.130Z,-2.37
2024-01-16T02:30:13.154Z,-2.35
2024-01-16T02:31:13.014Z,-2.34
2024-01-16T02:32:13.048Z,-2.39
2024-01-16T02:33:13.128Z,-2.45
2024-01-16T02:34:13.141Z,-2.50
2024-01-16T02:35:13.036Z,-2.67
2024-01-16T02:36:13.025Z,-2.56
2024-01-16T02:37:13.030Z,-2.67
2024-01-16T02:38:13.064Z,-2.67
2024-01-16T02:39:13.023Z,-2.79
2024-01-16T02:40:13.023Z,-2.71
2024-01-16T02:41:13.049Z,-2.74
2024-01-16T02:42:13.028Z,-2.74
2024-01-16T02:43:13.039Z,-2.77
2024-01-16T02:44:13.079Z,-2.74
2024-01-16T02:45:13.031Z,-2.85
2024-01-16T02:46:13.041Z,-2.92
2024-01-16T02:47:13.070Z,-2.96
2024-01-16T02:48:13.161Z,-2.96
2024-01-16T02:49:13.048Z,-2.94
2024-01-16T02:50:13.081Z,-3.00
2024-01-16T02:51:13.063Z,-3.12
2024-01-16T02:52:13.053Z,-3.07
2024-01-16T02:53:13.084Z,-3.09
2024-01-16T02:54:13.096Z,-3.23
2024-01-16T02:55:13.057Z,-3.23
2024-01-16T02:56:13.096Z,-3.21
2024-01-16T02:57:13.062Z,-3.15
2024-01-16T02:58:13.067Z,-3.18
2024-01-16T02:59:13.122Z,-3.21
2024-01-16T03:00:13.087Z,-3.30
2024-01-16T03:01:13.133Z,-3.36
2024-01-16T03:02:13.095Z,-3.38
2024-01-16T03:03:13.141Z,-3.33
2024-01-16T03:04:13.127Z,-3.35
2024-01-16T03:05:13.180Z,-3.41
2024-01-16T03:06:13.213Z,-3.46
2024-01-16T03:07:13.086Z,-3.46
2024-01-16T03:08:13.112Z,-3.36
2024-01-16T03:09:13.078Z,-3.30
2024-01-16T03:10:13.084Z,-3.39
2024-01-16T03:11:13.106Z,-3.33
2024-01-16T03:12:13.106Z,-3.38
2024-01-16T03:13:13.127Z,-3.31
2024-01-16T03:14:13.127Z,-3.38
2024-01-16T03:15:13.089Z,-3.38
2024-01-16T03:16:13.102Z,-3.42
2024-01-16T03:17:13.122Z,-3.41
2024-01-16T03:18:13.531Z,-3.43
2024-01-16T03:19:13.132Z,-3.30
2024-01-16T03:20:13.198Z,-3.15
2024-01-16T03:21:13.096Z,-3.12
2024-01-16T03:22:13.100Z,-3.20
2024-01-16T03:23:13.112Z,-3.21
2024-01-16T03:24:13.214Z,-3.33
2024-01-16T03:25:13.110Z,-3.38
2024-01-16T03:26:13.141Z,-3.21
2024-01-16T03:27:13.109Z,-3.24
2024-01-16T03:28:13.121Z,-3.33
2024-01-16T03:29:13.192Z,-3.36
2024-01-16T03:30:13.353Z,-3.42
2024-01-16T03:31:13.128Z,-3.43
2024-01-16T03:32:13.215Z,-3.35
2024-01-16T03:33:13.224Z,-3.18
2024-01-16T03:34:13.162Z,-3.17
2024-01-16T03:35:13.153Z,-3.12
2024-01-16T03:36:13.138Z,-3.20
2024-01-16T03:37:13.114Z,-3.15
2024-01-16T03:38:13.171Z,-3.25
2024-01-16T03:39:13.137Z,-3.38
2024-01-16T03:40:13.128Z,-3.27
2024-01-16T03:41:13.203Z,-3.33
2024-01-16T03:42:13.125Z,-3.20
2024-01-16T03:43:13.123Z,-3.15
2024-01-16T03:44:13.166Z,-3.15
2024-01-16T03:45:16.094Z,-3.10
2024-01-16T03:46:13.144Z,-3.10
2024-01-16T03:47:13.161Z,-3.18
2024-01-16T03:48:13.386Z,-3.24
2024-01-16T03:49:13.203Z,-3.30
2024-01-16T03:50:13.196Z,-3.36
2024-01-16T03:51:13.129Z,-3.33
2024-01-16T03:52:13.150Z,-3.36
2024-01-16T03:53:13.153Z,-3.31
2024-01-16T03:54:13.133Z,-3.42
2024-01-16T03:55:13.155Z,-3.46
2024-01-16T03:56:13.191Z,-3.56
2024-01-16T03:57:13.141Z,-3.60
2024-01-16T03:58:13.708Z,-3.62
2024-01-16T03:59:13.162Z,-3.57
2024-01-16T04:00:13.152Z,-3.63
2024-01-16T04:01:13.179Z,-3.63
2024-01-16T04:02:13.187Z,-3.69
2024-01-16T04:03:13.136Z,-3.60
2024-01-16T04:04:13.216Z,-3.64
2024-01-16T04:05:13.230Z,-3.71
2024-01-16T04:06:13.217Z,-3.78
2024-01-16T04:07:13.132Z,-3.75
2024-01-16T04:08:13.178Z,-3.72
2024-01-16T04:09:13.137Z,-3.75
2024-01-16T04:10:13.142Z,-3.75
2024-01-16T04:11:13.184Z,-3.72
2024-01-16T04:12:13.139Z,-3.76
2024-01-16T04:13:13.139Z,-3.71
2024-01-16T04:14:13.186Z,-3.78
2024-01-16T04:15:13.156Z,-3.67
2024-01-16T04:16:13.148Z,-3.76
2024-01-16T04:17:13.175Z,-3.78
2024-01-16T04:18:13.426Z,-3.72
2024-01-16T04:19:13.226Z,-3.75
2024-01-16T04:20:13.198Z,-3.71
2024-01-16T04:21:13.150Z,-3.60
2024-01-16T04:22:13.160Z,-3.64
2024-01-16T04:23:13.187Z,-3.69
2024-01-16T04:24:13.181Z,-3.69
2024-01-16T04:25:13.157Z,-3.71
2024-01-16T04:26:13.197Z,-3.71
2024-01-16T04:27:13.152Z,-3.78
2024-01-16T04:28:13.154Z,-3.79
2024-01-16T04:29:13.163Z,-3.71
2024-01-16T04:30:13.269Z,-3.78
2024-01-16T04:31:13.546Z,-3.76
2024-01-16T04:32:13.224Z,-3.82
2024-01-16T04:33:13.264Z,-3.82
2024-01-16T04:34:13.345Z,-3.90
2024-01-16T04:35:13.184Z,-3.86
2024-01-16T04:36:13.161Z,-3.93
2024-01-16T04:37:13.167Z,-3.90
2024-01-16T04:38:13.242Z,-3.88
2024-01-16T04:39:13.182Z,-3.88
2024-01-16T04:40:13.229Z,-3.83
2024-01-16T04:41:13.210Z,-3.85
2024-01-16T04:42:13.165Z,-3.85
2024-01-16T04:43:13.161Z,-3.90
2024-01-16T04:44:13.196Z,-3.76
2024-01-16T04:45:13.171Z,-3.72
2024-01-16T04:46:13.168Z,-3.81
2024-01-16T04:47:13.180Z,-3.81
2024-01-16T04:48:13.274Z,-3.78
2024-01-16T04:49:13.268Z,-3.81
2024-01-16T04:50:13.258Z,-3.86
2024-01-16T04:51:13.184Z,-3.83
2024-01-16T04:52:13.183Z,-3.69
2024-01-16T04:53:13.313Z,-3.71
2024-01-16T04:54:13.191Z,-3.71
2024-01-16T04:55:13.189Z,-3.79
2024-01-16T04:56:13.268Z,-3.69
2024-01-16T04:57:13.176Z,-3.67
2024-01-16T04:58:13.179Z,-3.67
2024-01-16T04:59:16.091Z,-3.72
2024-01-16T05:00:13.196Z,-3.66
2024-01-16T05:01:13.195Z,-3.76
2024-01-16T05:02:13.236Z,-3.72
2024-01-16T05:03:13.257Z,-3.67
2024-01-16T05:04:13.215Z,-3.59
2024-01-16T05:05:13.292Z,-3.60
2024-01-16T05:06:13.231Z,-3.62
2024-01-16T05:07:13.182Z,-3.60
2024-01-16T05:08:13.210Z,-3.67
2024-01-16T05:09:13.190Z,-3.72
2024-01-16T05:10:13.188Z,-3.76
2024-01-16T05:11:13.201Z,-3.72
2024-01-16T05:12:13.207Z,-3.66
2024-01-16T05:13:13.189Z,-3.66
2024-01-16T05:14:13.208Z,-3.72
2024-01-16T05:15:13.197Z,-3.83
2024-01-16T05:16:13.197Z,-3.88
2024-01-16T05:17:13.244Z,-3.86
2024-01-16T05:18:13.302Z,-3.93
2024-01-16T05:19:13.279Z,-3.91
2024-01-16T05:20:13.246Z,-4.04
2024-01-16T05:21:13.199Z,-4.06
2024-01-16T05:22:13.197Z,-4.03
2024-01-16T05:23:13.246Z,-3.97
2024-01-16T05:24:13.200Z,-4.01
2024-01-16T05:25:13.212Z,-4.01
2024-01-16T05:26:13.293Z,-4.00
2024-01-16T05:27:13.204Z,-4.00
2024-01-16T05:28:13.218Z,-4.03
2024-01-16T05:29:13.398Z,-3.96
2024-01-16T05:30:13.319Z,-3.99
2024-01-16T05:31:13.222Z,-4.03
2024-01-16T05:32:13.300Z,-4.04
2024-01-16T05:33:13.455Z,-4.12
2024-01-16T05:34:13.312Z,-4.10
2024-01-16T05:35:13.246Z,-4.03
2024-01-16T05:36:13.214Z,-4.03
2024-01-16T05:37:13.204Z,-4.03
2024-01-16T05:38:13.267Z,-4.14
2024-01-16T05:39:13.211Z,-4.03
2024-01-16T05:40:13.204Z,-4.00
2024-01-16T05:41:13.246Z,-4.01
2024-01-16T05:42:13.207Z,-4.03
2024-01-16T05:43:13.206Z,-3.96
2024-01-16T05:44:13.280Z,-3.90
2024-01-16T05:45:13.207Z,-3.91
2024-01-16T05:46:13.206Z,-3.99
2024-01-16T05:47:13.223Z,-3.91
2024-01-16T05:48:13.305Z,-3.85
2024-01-16T05:49:13.259Z,-3.90
2024-01-16T05:50:13.427Z,-3.86
2024-01-16T05:51:13.266Z,-3.76
2024-01-16T05:52:13.210Z,-3.71
2024-01-16T05:53:13.236Z,-3.69
2024-01-16T05:54:13.225Z,-3.75
2024-01-16T05:55:13.212Z,-3.62
2024-01-16T05:56:13.256Z,-3.60
2024-01-16T05:57:13.213Z,-3.59
2024-01-16T05:58:15.193Z,-3.59
2024-01-16T05:59:13.286Z,-3.56
2024-01-16T06:00:13.239Z,-3.54
2024-01-16T06:01:13.230Z,-3.54
2024-01-16T06:02:13.276Z,-3.54
2024-01-16T06:03:13.245Z,-3.49
2024-01-16T06:04:14.826Z,-3.46
2024-01-16T06:05:13.258Z,-3.45
2024-01-16T06:06:13.277Z,-3.43
2024-01-16T06:07:13.221Z,-3.35
2024-01-16T06:08:13.270Z,-3.45
2024-01-16T06:09:13.221Z,-3.38
2024-01-16T06:10:13.217Z,-3.35
2024-01-16T06:11:14.816Z,-3.31
2024-01-16T06:12:13.221Z,-3.35
2024-01-16T06:13:13.221Z,-3.42
2024-01-16T06:14:13.412Z,-3.49
2024-01-16T06:15:13.233Z,-3.48
2024-01-16T06:16:13.243Z,-3.39
2024-01-16T06:17:13.253Z,-3.43
2024-01-16T06:18:13.308Z,-3.42
2024-01-16T06:19:13.252Z,-3.35
2024-01-16T06:20:13.336Z,-3.45
2024-01-16T06:21:13.293Z,-3.45
2024-01-16T06:22:13.229Z,-3.45
2024-01-16T06:23:13.273Z,-3.45
2024-01-16T06:24:13.232Z,-3.46
2024-01-16T06:25:13.237Z,-3.49
2024-01-16T06:26:13.233Z,-3.54
2024-01-16T06:27:13.231Z,-3.54
2024-01-16T06:28:13.272Z,-3.42
2024-01-16T06:29:21.502Z,-3.33
2024-01-16T06:30:13.320Z,-3.30
2024-01-16T06:31:13.267Z,-3.38
2024-01-16T06:32:13.380Z,-3.25
2024-01-16T06:33:13.385Z,-3.30
2024-01-16T06:34:13.301Z,-3.30
2024-01-16T06:35:13.314Z,-3.31
2024-01-16T06:36:13.246Z,-3.36
2024-01-16T06:37:13.245Z,-3.36
2024-01-16T06:38:13.247Z,-3.38
2024-01-16T06:39:13.244Z,-3.39
2024-01-16T06:40:13.239Z,-3.33
2024-01-16T06:41:13.264Z,-3.39
2024-01-16T06:42:13.248Z,-3.28
2024-01-16T06:43:13.248Z,-3.33
2024-01-16T06:44:13.268Z,-3.30
2024-01-16T06:45:13.247Z,-3.30
2024-01-16T06:46:13.248Z,-3.30
2024-01-16T06:47:13.307Z,-3.35
2024-01-16T06:48:13.394Z,-3.36
2024-01-16T06:49:13.322Z,-3.43
2024-01-16T06:50:13.304Z,-3.43
2024-01-16T06:51:13.251Z,-3.45
2024-01-16T06:52:13.252Z,-3.31
2024-01-16T06:53:15.363Z,-3.30
2024-01-16T06:54:13.265Z,-3.31
2024-01-16T06:55:13.262Z,-3.30
2024-01-16T06:56:13.281Z,-3.38
2024-01-16T06:57:13.257Z,-3.43
2024-01-16T06:58:13.261Z,-3.35
2024-01-16T06:59:13.289Z,-3.39
2024-01-16T07:00:13.261Z,-3.35
2024-01-16T07:01:13.306Z,-3.31
2024-01-16T07:02:13.308Z,-3.45
2024-01-16T07:03:13.283Z,-3.30
2024-01-16T07:04:13.304Z,-3.15
2024-01-16T07:05:13.411Z,-3.17
2024-01-16T07:06:13.371Z,-3.09
2024-01-16T07:07:13.280Z,-3.21
2024-01-16T07:08:13.272Z,-3.21
2024-01-16T07:09:13.263Z,-3.23
2024-01-16T07:10:13.260Z,-3.21
2024-01-16T07:11:13.278Z,-3.21
2024-01-16T07:12:13.279Z,-3.20
2024-01-16T07:13:13.259Z,-3.24
2024-01-16T07:14:13.318Z,-3.27
2024-01-16T07:15:13.260Z,-3.25
2024-01-16T07:16:13.261Z,-3.28
2024-01-16T07:17:13.277Z,-3.31
2024-01-16T07:18:13.385Z,-3.36
2024-01-16T07:19:13.484Z,-3.36
2024-01-16T07:20:13.358Z,-3.27
2024-01-16T07:21:13.270Z,-3.39
2024-01-16T07:22:13.267Z,-3.36
2024-01-16T07:23:13.298Z,-3.35
2024-01-16T07:24:13.270Z,-3.35
2024-01-16T07:25:13.267Z,-3.20
2024-01-16T07:26:13.471Z,-3.17
2024-01-16T07:27:13.270Z,-3.07
2024-01-16T07:28:13.286Z,-3.00
2024-01-16T07:29:13.323Z,-3.02
2024-01-16T07:30:13.291Z,-2.99
2024-01-16T07:31:13.310Z,-2.86
2024-01-16T07:32:13.358Z,-2.74
2024-01-16T07:33:13.376Z,-2.67
2024-01-16T07:34:13.352Z,-2.58
2024-01-16T07:35:13.373Z,-2.50
2024-01-16T07:36:13.305Z,-2.43
2024-01-16T07:37:13.279Z,-2.42
2024-01-16T07:38:13.302Z,-2.24
2024-01-16T07:39:13.283Z,-2.18
2024-01-16T07:40:13.286Z,-2.21
2024-01-16T07:41:13.311Z,-2.12
2024-01-16T07:42:13.285Z,-2.12
2024-01-16T07:43:13.296Z,-2.09
2024-01-16T07:44:13.296Z,-2.13
2024-01-16T07:45:13.289Z,-2.10
2024-01-16T07:46:13.282Z,-2.15
2024-01-16T07:47:13.310Z,-2.13
2024-01-16T07:48:13.437Z,-2.06
2024-01-16T07:49:13.375Z,-2.03
2024-01-16T07:50:13.345Z,-2.05
2024-01-16T07:51:13.295Z,-2.05
2024-01-16T07:52:13.323Z,-2.05
2024-01-16T07:53:13.309Z,-2.08
2024-01-16T07:54:13.299Z,-2.00
2024-01-16T07:55:13.297Z,-1.94
2024-01-16T07:56:13.425Z,-1.95
2024-01-16T07:57:13.299Z,-1.82
2024-01-16T07:58:13.300Z,-1.90
2024-01-16T07:59:13.423Z,-1.82
2024-01-16T08:00:13.309Z,-1.84
2024-01-16T08:01:13.358Z,-1.73
2024-01-16T08:02:13.358Z,-1.69
2024-01-16T08:03:13.635Z,-1.66
2024-01-16T08:04:13.413Z,-1.64
2024-01-16T08:05:13.417Z,-1.64
2024-01-16T08:06:13.453Z,-1.72
2024-01-16T08:07:13.329Z,-1.66
2024-01-16T08:08:13.457Z,-1.76
2024-01-16T08:09:13.500Z,-1.82
2024-01-16T08:10:14.795Z,-1.67
2024-01-16T08:11:13.383Z,-1.70
2024-01-16T08:12:13.354Z,-1.56
2024-01-16T08:13:13.334Z,-1.41
2024-01-16T08:14:13.386Z,-1.30
2024-01-16T08:15:13.353Z,-1.19
2024-01-16T08:16:13.362Z,-1.05
2024-01-16T08:17:13.378Z,-0.99
2024-01-16T08:18:13.616Z,-0.89
2024-01-16T08:19:13.431Z,-0.91
2024-01-16T08:20:13.404Z,-0.89
2024-01-16T08:21:13.390Z,-0.86
2024-01-16T08:22:13.362Z,-0.91
2024-01-16T08:23:13.390Z,-0.89
2024-01-16T08:24:13.392Z,-0.83
2024-01-16T08:25:13.396Z,-0.72
2024-01-16T08:26:13.416Z,-0.80
2024-01-16T08:27:13.384Z,-0.70
2024-01-16T08:28:13.384Z,-0.72
2024-01-16T08:29:13.430Z,-0.64
2024-01-16T08:30:13.634Z,-0.64
2024-01-16T08:31:13.396Z,-0.52
2024-01-16T08:32:13.430Z,-0.58
2024-01-16T08:33:13.513Z,-0.58
2024-01-16T08:34:13.477Z,-0.54
2024-01-16T08:35:13.565Z,-0.57
2024-01-16T08:36:13.465Z,-0.40
2024-01-16T08:37:13.403Z,-0.39
2024-01-16T08:38:13.429Z,-0.36
2024-01-16T08:39:13.409Z,-0.19
2024-01-16T08:40:13.424Z,-0.08
2024-01-16T08:41:13.452Z,-0.01
2024-01-16T08:42:13.414Z,0.23
2024-01-16T08:43:13.425Z,0.33
2024-01-16T08:44:13.459Z,0.42
2024-01-16T08:45:13.427Z,0.53
2024-01-16T08:46:13.458Z,0.65
2024-01-16T08:47:13.457Z,0.83
2024-01-16T08:48:13.594Z,0.97
2024-01-16T08:49:13.954Z,1.09
2024-01-16T08:50:13.486Z,1.15
2024-01-16T08:51:13.441Z,1.23
2024-01-16T08:52:13.440Z,1.32
2024-01-16T08:53:13.473Z,1.30
2024-01-16T08:54:13.444Z,1.22
2024-01-16T08:55:13.457Z,1.36
2024-01-16T08:56:13.777Z,1.34
2024-01-16T08:57:15.657Z,1.40
2024-01-16T08:58:13.463Z,1.52
2024-01-16T08:59:13.515Z,1.60
2024-01-16T09:00:13.486Z,1.73
2024-01-16T09:01:13.539Z,1.70
2024-01-16T09:02:13.605Z,1.66
2024-01-16T09:03:13.488Z,1.80
2024-01-16T09:04:13.620Z,1.88
2024-01-16T09:05:13.629Z,2.03
2024-01-16T09:06:13.609Z,2.14
2024-01-16T09:07:13.581Z,2.24
2024-01-16T09:08:14.127Z,2.38
2024-01-16T09:09:13.514Z,2.38
2024-01-16T09:10:13.505Z,2.38
2024-01-16T09:11:13.558Z,2.25
2024-01-16T09:12:13.535Z,2.28
2024-01-16T09:13:13.536Z,2.14
2024-01-16T09:14:13.542Z,2.09
2024-01-16T09:15:13.568Z,2.14
2024-01-16T09:16:13.537Z,2.28
2024-01-16T09:17:13.570Z,2.28
2024-01-16T09:18:13.666Z,2.38
2024-01-16T09:19:13.664Z,2.31
2024-01-16T09:20:13.596Z,2.17
2024-01-16T09:21:13.555Z,2.24
2024-01-16T09:22:13.558Z,2.10
2024-01-16T09:23:13.611Z,2.24
2024-01-16T09:24:13.562Z,2.38
2024-01-16T09:25:13.571Z,2.45
2024-01-16T09:26:13.598Z,2.54
2024-01-16T09:27:13.581Z,2.74
2024-01-16T09:28:13.607Z,2.63
2024-01-16T09:29:13.601Z,2.59
2024-01-16T09:30:13.652Z,2.69
2024-01-16T09:31:13.662Z,2.75
2024-01-16T09:32:13.620Z,2.87
2024-01-16T09:33:13.644Z,2.90
2024-01-16T09:34:13.693Z,2.96
2024-01-16T09:35:13.690Z,3.02
2024-01-16T09:36:13.628Z,3.21
2024-01-16T09:37:13.635Z,3.51
2024-01-16T09:38:13.667Z,3.58
2024-01-16T09:39:14.681Z,3.48
2024-01-16T09:40:13.652Z,3.47
2024-01-16T09:41:13.674Z,3.61
2024-01-16T09:42:13.657Z,3.86
2024-01-16T09:43:13.686Z,3.96
2024-01-16T09:44:13.751Z,3.78
2024-01-16T09:45:13.662Z,3.61
2024-01-16T09:46:13.685Z,3.83
2024-01-16T09:47:13.725Z,3.87
2024-01-16T09:48:13.827Z,3.83
2024-01-16T09:49:13.758Z,3.70
2024-01-16T09:50:13.723Z,3.83
2024-01-16T09:51:13.699Z,4.12
2024-01-16T09:52:13.703Z,4.29
2024-01-16T09:53:13.739Z,4.59
2024-01-16T09:54:13.727Z,4.58
2024-01-16T09:55:13.743Z,4.51
2024-01-16T09:56:13.766Z,4.70
2024-01-16T09:57:13.735Z,4.85
2024-01-16T09:58:13.737Z,5.20
2024-01-16T09:59:13.794Z,5.54
2024-01-16T10:00:13.762Z,5.65
2024-01-16T10:01:13.769Z,5.86
2024-01-16T10:02:13.791Z,5.51
2024-01-16T10:03:13.766Z,5.67
2024-01-16T10:04:13.838Z,5.81
2024-01-16T10:05:13.892Z,6.08
2024-01-16T10:06:13.933Z,6.27
2024-01-16T10:07:13.789Z,6.66
2024-01-16T10:08:13.873Z,7.03
2024-01-16T10:09:13.801Z,7.27
2024-01-16T10:10:13.889Z,7.64
2024-01-16T10:11:13.836Z,7.53
2024-01-16T10:12:13.837Z,7.24
2024-01-16T10:13:13.837Z,7.25
2024-01-16T10:14:13.858Z,7.24
2024-01-16T10:15:13.857Z,7.13
2024-01-16T10:16:13.883Z,7.25
2024-01-16T10:17:13.888Z,7.61
2024-01-16T10:18:13.980Z,7.72
2024-01-16T10:19:13.980Z,7.95
2024-01-16T10:20:13.986Z,7.75
2024-01-16T10:21:13.895Z,7.83
2024-01-16T10:22:14.012Z,7.60
2024-01-16T10:23:13.939Z,7.63
2024-01-16T10:24:13.944Z,7.69
2024-01-16T10:25:13.936Z,7.72
2024-01-16T10:26:13.963Z,7.28
2024-01-16T10:27:13.946Z,7.20
2024-01-16T10:28:13.990Z,6.84
2024-01-16T10:29:13.998Z,6.71
2024-01-16T10:30:14.495Z,6.64
2024-01-16T10:31:14.104Z,6.64
2024-01-16T10:32:14.290Z,6.69
2024-01-16T10:33:14.221Z,6.98
2024-01-16T10:34:14.125Z,7.23
2024-01-16T10:35:14.446Z,7.27
2024-01-16T10:36:14.043Z,7.52
2024-01-16T10:37:14.037Z,7.63
2024-01-16T10:38:14.080Z,7.85
2024-01-16T10:39:14.049Z,8.00
2024-01-16T10:40:14.075Z,8.08
2024-01-16T10:41:14.182Z,7.72
2024-01-16T10:42:14.073Z,7.48
2024-01-16T10:43:14.086Z,7.30
2024-01-16T10:44:14.119Z,6.97
2024-01-16T10:45:14.100Z,6.76
2024-01-16T10:46:14.200Z,6.64
2024-01-16T10:47:14.186Z,6.51
2024-01-16T10:48:14.220Z,6.36
2024-01-16T10:49:14.165Z,6.25
2024-01-16T10:50:14.165Z,6.31
2024-01-16T10:51:14.149Z,6.27
2024-01-16T10:52:14.180Z,6.25
2024-01-16T10:53:14.227Z,6.18
2024-01-16T10:54:14.195Z,6.27
2024-01-16T10:55:14.181Z,6.36
2024-01-16T10:56:14.251Z,6.43
2024-01-16T10:57:14.208Z,6.36
2024-01-16T10:58:14.321Z,6.33
2024-01-16T10:59:14.243Z,6.52
2024-01-16T11:00:14.233Z,6.51
2024-01-16T11:01:14.332Z,6.70
2024-01-16T11:02:14.273Z,6.77
2024-01-16T11:03:14.257Z,6.58
2024-01-16T11:04:16.200Z,6.28
2024-01-16T11:05:14.373Z,6.00
2024-01-16T11:06:14.378Z,5.96
2024-01-16T11:07:14.298Z,5.99
2024-01-16T11:08:14.301Z,5.81
2024-01-16T11:09:14.302Z,6.09
2024-01-16T11:10:14.310Z,6.70
2024-01-16T11:11:14.341Z,7.23
2024-01-16T11:12:14.326Z,7.40
2024-01-16T11:13:14.345Z,7.27
2024-01-16T11:14:14.368Z,7.03
2024-01-16T11:15:14.372Z,6.95
2024-01-16T11:16:14.372Z,6.79
2024-01-16T11:17:14.410Z,6.67
2024-01-16T11:18:14.481Z,6.54
2024-01-16T11:19:25.746Z,6.59
2024-01-16T11:20:29.881Z,6.71
2024-01-16T11:21:17.148Z,6.69
2024-01-16T11:22:14.557Z,6.56
2024-01-16T11:23:14.446Z,6.95
2024-01-16T11:24:14.429Z,7.31
2024-01-16T11:25:14.437Z,7.55
2024-01-16T11:26:14.491Z,7.75
2024-01-16T11:27:14.505Z,8.07
2024-01-16T11:28:14.529Z,7.80
2024-01-16T11:29:14.500Z,7.46
2024-01-16T11:30:14.560Z,7.16
2024-01-16T11:31:14.529Z,7.02
2024-01-16T11:32:23.635Z,6.67
2024-01-16T11:33:14.632Z,6.59
2024-01-16T11:34:14.734Z,6.70
2024-01-16T11:35:14.639Z,6.59
2024-01-16T11:36:14.560Z,6.80
2024-01-16T11:37:14.542Z,6.70
2024-01-16T11:38:14.573Z,6.71
2024-01-16T11:39:14.568Z,6.49
2024-01-16T11:40:14.567Z,6.64
2024-01-16T11:41:14.619Z,6.62
2024-01-16T11:42:14.615Z,6.79
2024-01-16T11:43:14.596Z,6.69
2024-01-16T11:44:14.631Z,6.64
2024-01-16T11:45:14.626Z,6.12
2024-01-16T11:46:14.623Z,6.00
2024-01-16T11:47:14.683Z,6.08
2024-01-16T11:48:14.966Z,6.27
2024-01-16T11:49:14.712Z,6.36
2024-01-16T11:50:14.708Z,6.34
2024-01-16T11:51:14.669Z,6.31
2024-01-16T11:52:14.701Z,6.38
2024-01-16T11:53:14.701Z,6.62
2024-01-16T11:54:14.693Z,6.67
2024-01-16T11:55:14.700Z,6.73
2024-01-16T11:56:14.714Z,6.54
2024-01-16T11:57:14.760Z,6.84
2024-01-16T11:58:14.728Z,6.99
2024-01-16T11:59:14.747Z,6.98
2024-01-16T12:00:14.754Z,7.27
2024-01-16T12:01:14.801Z,7.53
2024-01-16T12:02:14.788Z,8.15
2024-01-16T12:03:21.928Z,8.41
2024-01-16T12:04:14.780Z,9.05
2024-01-16T12:05:14.850Z,9.87
2024-01-16T12:06:14.936Z,9.94
2024-01-16T12:07:14.873Z,9.91
2024-01-16T12:08:14.911Z,9.87
2024-01-16T12:09:14.826Z,10.08
2024-01-16T12:10:14.843Z,9.79
2024-01-16T12:11:14.866Z,9.84
2024-01-16T12:12:14.873Z,9.46
2024-01-16T12:13:14.861Z,9.71
2024-01-16T12:14:14.898Z,9.61
2024-01-16T12:15:14.887Z,9.42
2024-01-16T12:16:14.897Z,9.86
2024-01-16T12:17:15.040Z,9.89
2024-01-16T12:18:23.414Z,10.30
2024-01-16T12:19:15.209Z,10.51
2024-01-16T12:20:15.025Z,10.48
2024-01-16T12:21:15.157Z,10.53
2024-01-16T12:22:15.006Z,10.63
2024-01-16T12:23:15.023Z,10.20
2024-01-16T12:24:18.475Z,10.32
2024-01-16T12:25:14.992Z,10.32
2024-01-16T12:26:15.014Z,10.15
2024-01-16T12:27:15.043Z,10.02
2024-01-16T12:28:19.147Z,10.14
2024-01-16T12:29:15.057Z,10.26
2024-01-16T12:30:15.076Z,10.59
2024-01-16T12:31:15.077Z,10.97
2024-01-16T12:32:15.125Z,11.36
2024-01-16T12:33:15.186Z,11.52
2024-01-16T12:34:15.188Z,11.82
2024-01-16T12:35:15.172Z,11.83
2024-01-16T12:36:15.151Z,12.37
2024-01-16T12:37:15.148Z,12.14
2024-01-16T12:38:15.156Z,11.94
2024-01-16T12:39:15.173Z,11.58
2024-01-16T12:40:15.211Z,11.54
2024-01-16T12:41:15.193Z,11.29
2024-01-16T12:42:15.228Z,11.62
2024-01-16T12:43:15.211Z,11.33
2024-01-16T12:44:17.171Z,11.04
2024-01-16T12:45:15.242Z,10.36
2024-01-16T12:46:15.247Z,10.40
2024-01-16T12:47:15.293Z,9.99
2024-01-16T12:48:15.371Z,9.47
2024-01-16T12:49:15.466Z,9.20
2024-01-16T12:50:15.399Z,9.28
2024-01-16T12:51:15.359Z,9.24
2024-01-16T12:52:15.325Z,9.31
2024-01-16T12:53:15.370Z,9.24
2024-01-16T12:54:15.731Z,8.96
2024-01-16T12:55:15.362Z,8.76
2024-01-16T12:56:16.977Z,8.65
2024-01-16T12:57:15.511Z,8.61
2024-01-16T12:58:15.407Z,8.47
2024-01-16T12:59:15.587Z,8.33
2024-01-16T13:00:15.431Z,8.22